createdAt,value
2022-09-18T00:00:58.708Z,17.96
2022-09-18T00:02:00.499Z,18.00
2022-09-18T00:03:02.295Z,18.03
2022-09-18T00:04:07.087Z,18.05
2022-09-18T00:05:09.309Z,18.07
2022-09-18T00:06:17.107Z,18.11
2022-09-18T00:07:19.346Z,17.79
2022-09-18T00:08:21.010Z,18.15
2022-09-18T00:09:23.179Z,18.20
2022-09-18T00:10:24.845Z,18.22
2022-09-18T00:11:29.343Z,18.22
2022-09-18T00:12:31.208Z,18.20
2022-09-18T00:13:34.939Z,18.09
2022-09-18T00:14:36.960Z,17.91
2022-09-18T00:15:38.776Z,17.85
2022-09-18T00:16:41.603Z,17.81
2022-09-18T00:17:43.626Z,17.79
2022-09-18T00:18:45.818Z,17.79
2022-09-18T00:19:47.689Z,17.85
2022-09-18T00:20:49.340Z,17.83
2022-09-18T00:21:52.230Z,17.70
2022-09-18T00:22:53.916Z,17.72
2022-09-18T00:23:58.450Z,17.62
2022-09-18T00:25:00.309Z,17.76
2022-09-18T00:26:02.424Z,17.70
2022-09-18T00:27:04.296Z,17.82
2022-09-18T00:28:06.018Z,17.85
2022-09-18T00:29:07.805Z,17.78
2022-09-18T00:30:10.598Z,17.88
2022-09-18T00:31:18.458Z,17.88
2022-09-18T00:32:20.151Z,17.78
2022-09-18T00:33:21.843Z,17.85
2022-09-18T00:34:23.498Z,17.76
2022-09-18T00:35:25.225Z,17.36
2022-09-18T00:36:27.471Z,17.23
2022-09-18T00:37:29.316Z,17.39
2022-09-18T00:38:34.619Z,17.50
2022-09-18T00:39:36.346Z,17.54
2022-09-18T00:40:38.914Z,17.53
2022-09-18T00:41:43.109Z,17.60
2022-09-18T00:42:45.232Z,17.59
2022-09-18T00:43:46.945Z,17.61
2022-09-18T00:44:49.639Z,17.62
2022-09-18T00:46:08.655Z,17.47
2022-09-18T00:47:10.298Z,17.43
2022-09-18T00:48:12.083Z,17.39
2022-09-18T00:49:27.204Z,17.27
2022-09-18T00:50:28.920Z,17.40
2022-09-18T00:51:34.003Z,17.45
2022-09-18T00:52:47.887Z,17.50
2022-09-18T00:54:30.052Z,17.52
2022-09-18T00:55:40.119Z,17.58
2022-09-18T00:56:42.674Z,17.57
2022-09-18T00:57:51.420Z,17.55
2022-09-18T00:58:53.244Z,17.58
2022-09-18T00:59:55.363Z,17.33
2022-09-18T01:00:57.202Z,17.58
2022-09-18T01:02:01.034Z,17.49
2022-09-18T01:03:02.783Z,17.54
2022-09-18T01:04:04.509Z,17.58
2022-09-18T01:05:08.078Z,17.61
2022-09-18T01:06:28.994Z,17.62
2022-09-18T01:07:52.435Z,17.62
2022-09-18T01:09:06.286Z,17.65
2022-09-18T01:10:21.122Z,17.63
2022-09-18T01:11:51.134Z,17.59
2022-09-18T01:12:56.855Z,17.59
2022-09-18T01:14:25.805Z,17.48
2022-09-18T01:16:05.078Z,17.35
2022-09-18T01:17:21.130Z,17.28
2022-09-18T01:18:38.843Z,17.20
2022-09-18T01:19:59.180Z,17.15
2022-09-18T01:21:09.978Z,17.01
2022-09-18T01:22:33.348Z,16.99
2022-09-18T01:23:34.941Z,16.96
2022-09-18T01:25:03.097Z,16.95
2022-09-18T01:26:14.458Z,16.88
2022-09-18T01:27:30.762Z,16.97
2022-09-18T01:28:39.896Z,16.99
2022-09-18T01:29:57.090Z,16.99
2022-09-18T01:31:06.385Z,16.99
2022-09-18T01:32:20.042Z,16.97
2022-09-18T01:33:28.612Z,16.93
2022-09-18T01:34:48.649Z,16.92
2022-09-18T01:35:55.871Z,16.86
2022-09-18T01:37:13.647Z,16.88
2022-09-18T01:38:28.691Z,16.82
2022-09-18T01:39:53.289Z,16.92
2022-09-18T01:41:14.108Z,16.90
2022-09-18T01:42:18.971Z,16.92
2022-09-18T01:43:22.293Z,16.76
2022-09-18T01:44:29.432Z,16.73
2022-09-18T01:45:39.253Z,16.74
2022-09-18T01:46:44.378Z,16.90
2022-09-18T01:47:55.083Z,16.88
2022-09-18T01:49:12.908Z,16.96
2022-09-18T01:50:15.712Z,17.03
2022-09-18T01:51:22.700Z,17.07
2022-09-18T01:52:31.232Z,17.15
2022-09-18T01:53:39.893Z,17.19
2022-09-18T01:54:45.098Z,17.25
2022-09-18T01:55:56.003Z,17.23
2022-09-18T01:57:28.852Z,17.28
2022-09-18T01:58:34.362Z,17.27
2022-09-18T02:00:05.024Z,17.30
2022-09-18T02:01:13.333Z,17.32
2022-09-18T02:02:29.754Z,17.34
2022-09-18T02:03:41.501Z,17.34
2022-09-18T02:04:46.659Z,17.38
2022-09-18T02:06:16.684Z,17.33
2022-09-18T02:07:48.543Z,17.40
2022-09-18T02:08:54.358Z,17.35
2022-09-18T02:09:58.580Z,17.43
2022-09-18T02:11:06.670Z,17.43
2022-09-18T02:12:12.206Z,17.48
2022-09-18T02:13:17.210Z,17.48
2022-09-18T02:14:31.959Z,17.54
2022-09-18T02:15:38.789Z,17.58
2022-09-18T02:16:46.845Z,17.61
2022-09-18T02:17:56.587Z,17.63
2022-09-18T02:19:04.118Z,17.65
2022-09-18T02:20:21.077Z,17.66
2022-09-18T02:21:32.839Z,17.68
2022-09-18T02:22:35.233Z,17.72
2022-09-18T02:23:39.029Z,17.61
2022-09-18T02:24:45.941Z,17.71
2022-09-18T02:25:56.194Z,17.66
2022-09-18T02:27:00.480Z,17.57
2022-09-18T02:28:04.304Z,17.55
2022-09-18T02:29:08.982Z,17.61
2022-09-18T02:30:12.260Z,17.63
2022-09-18T02:31:14.473Z,17.64
2022-09-18T02:32:16.492Z,17.71
2022-09-18T02:33:26.160Z,17.73
2022-09-18T02:34:29.499Z,17.78
2022-09-18T02:35:41.808Z,17.81
2022-09-18T02:36:43.462Z,17.87
2022-09-18T02:37:48.204Z,17.89
2022-09-18T02:38:56.305Z,17.89
2022-09-18T02:40:16.760Z,17.89
2022-09-18T02:41:40.542Z,17.86
2022-09-18T02:42:51.109Z,17.87
2022-09-18T02:44:07.391Z,17.91
2022-09-18T02:45:33.199Z,17.96
2022-09-18T02:46:47.072Z,18.02
2022-09-18T02:48:07.317Z,18.01
2022-09-18T02:49:31.851Z,17.99
2022-09-18T02:50:51.833Z,17.98
2022-09-18T02:52:16.302Z,18.00
2022-09-18T02:53:20.691Z,18.02
2022-09-18T02:55:27.016Z,18.00
2022-09-18T02:56:41.418Z,17.83
2022-09-18T02:57:49.581Z,17.90
2022-09-18T02:59:10.260Z,17.88
2022-09-18T03:00:17.070Z,17.81
2022-09-18T03:01:22.124Z,17.83
2022-09-18T03:02:25.572Z,17.82
2022-09-18T03:03:30.859Z,17.82
2022-09-18T03:04:32.505Z,17.85
2022-09-18T03:05:34.277Z,17.85
2022-09-18T03:06:35.911Z,17.85
2022-09-18T03:07:37.885Z,17.87
2022-09-18T03:08:39.940Z,17.88
2022-09-18T03:09:42.475Z,17.75
2022-09-18T03:10:44.132Z,17.84
2022-09-18T03:11:45.932Z,17.86
2022-09-18T03:12:47.600Z,17.76
2022-09-18T03:13:49.325Z,17.77
2022-09-18T03:14:51.233Z,17.85
2022-09-18T03:15:55.982Z,17.82
2022-09-18T03:16:57.749Z,17.83
2022-09-18T03:17:59.393Z,17.79
2022-09-18T03:19:01.528Z,17.77
2022-09-18T03:20:06.636Z,17.74
2022-09-18T03:21:08.306Z,17.75
2022-09-18T03:22:10.162Z,17.79
2022-09-18T03:23:11.884Z,17.81
2022-09-18T03:24:13.792Z,17.83
2022-09-18T03:25:15.890Z,17.84
2022-09-18T03:26:18.349Z,17.75
2022-09-18T03:27:20.363Z,17.80
2022-09-18T03:28:22.371Z,17.78
2022-09-18T03:29:24.036Z,17.78
2022-09-18T03:30:25.798Z,17.80
2022-09-18T03:31:27.759Z,17.83
2022-09-18T03:32:29.476Z,17.83
2022-09-18T03:33:31.143Z,17.73
2022-09-18T03:34:32.839Z,17.90
2022-09-18T03:35:34.574Z,17.89
2022-09-18T03:36:36.759Z,17.90
2022-09-18T03:37:38.466Z,17.92
2022-09-18T03:38:41.103Z,17.90
2022-09-18T03:39:43.065Z,17.92
2022-09-18T03:40:47.718Z,17.94
2022-09-18T03:41:49.970Z,17.89
2022-09-18T03:42:51.956Z,18.01
2022-09-18T03:43:53.642Z,17.97
2022-09-18T03:44:57.603Z,18.03
2022-09-18T03:45:59.277Z,18.02
2022-09-18T03:47:01.282Z,18.04
2022-09-18T03:48:03.306Z,18.03
2022-09-18T03:49:05.006Z,18.06
2022-09-18T03:50:07.188Z,18.04
2022-09-18T03:51:08.966Z,17.94
2022-09-18T03:52:10.652Z,17.82
2022-09-18T03:53:12.308Z,17.90
2022-09-18T03:54:14.774Z,17.88
2022-09-18T03:55:16.494Z,17.84
2022-09-18T03:56:18.472Z,17.69
2022-09-18T03:57:20.153Z,17.77
2022-09-18T03:58:21.826Z,17.67
2022-09-18T03:59:23.546Z,17.60
2022-09-18T04:00:25.737Z,17.58
2022-09-18T04:01:27.426Z,17.50
2022-09-18T04:02:29.173Z,17.42
2022-09-18T04:03:31.137Z,17.37
2022-09-18T04:04:33.205Z,17.31
2022-09-18T04:05:35.620Z,17.15
2022-09-18T04:06:37.574Z,17.12
2022-09-18T04:07:39.246Z,16.99
2022-09-18T04:08:41.060Z,16.97
2022-09-18T04:09:42.795Z,16.87
2022-09-18T04:10:46.875Z,16.75
2022-09-18T04:11:48.864Z,16.69
2022-09-18T04:12:50.506Z,16.62
2022-09-18T04:13:52.426Z,16.59
2022-09-18T04:14:55.653Z,16.56
2022-09-18T04:15:57.399Z,16.52
2022-09-18T04:16:59.257Z,16.41
2022-09-18T04:18:01.003Z,16.37
2022-09-18T04:19:03.009Z,16.31
2022-09-18T04:20:05.361Z,16.21
2022-09-18T04:21:07.084Z,16.09
2022-09-18T04:22:08.749Z,15.99
2022-09-18T04:23:12.776Z,15.97
2022-09-18T04:24:14.473Z,15.88
2022-09-18T04:25:17.379Z,15.85
2022-09-18T04:26:19.105Z,15.83
2022-09-18T04:27:20.842Z,15.79
2022-09-18T04:28:22.647Z,15.84
2022-09-18T04:29:24.463Z,15.71
2022-09-18T04:30:26.151Z,15.74
2022-09-18T04:31:28.181Z,15.71
2022-09-18T04:32:29.902Z,15.66
2022-09-18T04:33:31.652Z,15.68
2022-09-18T04:34:33.355Z,15.66
2022-09-18T04:35:35.782Z,15.62
2022-09-18T04:36:37.476Z,15.76
2022-09-18T04:37:39.183Z,15.85
2022-09-18T04:38:40.911Z,15.63
2022-09-18T04:39:42.950Z,15.91
2022-09-18T04:40:44.608Z,16.11
2022-09-18T04:41:46.274Z,16.20
2022-09-18T04:42:47.980Z,16.31
2022-09-18T04:43:49.659Z,16.45
2022-09-18T04:44:51.614Z,16.60
2022-09-18T04:45:54.212Z,16.69
2022-09-18T04:46:56.243Z,16.73
2022-09-18T04:47:57.995Z,16.66
2022-09-18T04:48:59.749Z,16.67
2022-09-18T04:50:01.505Z,16.75
2022-09-18T04:51:03.211Z,16.81
2022-09-18T04:52:04.906Z,17.04
2022-09-18T04:53:06.672Z,17.15
2022-09-18T04:54:09.699Z,17.13
2022-09-18T04:55:11.576Z,17.30
2022-09-18T04:56:13.248Z,17.44
2022-09-18T04:57:15.017Z,17.51
2022-09-18T04:58:18.663Z,17.58
2022-09-18T04:59:20.457Z,17.58
2022-09-18T05:00:22.115Z,17.75
2022-09-18T05:01:23.837Z,17.83
2022-09-18T05:02:25.558Z,17.96
2022-09-18T05:03:27.454Z,18.16
2022-09-18T05:04:29.245Z,18.31
2022-09-18T05:05:31.369Z,18.37
2022-09-18T05:06:33.285Z,18.20
2022-09-18T05:07:35.188Z,18.54
2022-09-18T05:08:37.382Z,18.58
2022-09-18T05:09:39.083Z,18.62
2022-09-18T05:10:42.470Z,18.60
2022-09-18T05:11:44.216Z,18.51
2022-09-18T05:12:46.115Z,18.21
2022-09-18T05:13:52.564Z,18.24
2022-09-18T05:14:54.231Z,18.07
2022-09-18T05:15:57.274Z,18.00
2022-09-18T05:16:59.266Z,17.98
2022-09-18T05:18:11.086Z,17.71
2022-09-18T05:19:13.310Z,17.67
2022-09-18T05:20:15.128Z,17.71
2022-09-18T05:21:17.030Z,17.87
2022-09-18T05:22:18.695Z,17.91
2022-09-18T05:23:20.360Z,17.91
2022-09-18T05:24:22.018Z,17.89
2022-09-18T05:25:27.490Z,18.09
2022-09-18T05:26:31.286Z,18.21
2022-09-18T05:27:33.293Z,18.15
2022-09-18T05:28:34.969Z,18.02
2022-09-18T05:29:37.310Z,17.82
2022-09-18T05:30:39.144Z,17.82
2022-09-18T05:31:42.243Z,17.72
2022-09-18T05:32:44.020Z,17.60
2022-09-18T05:33:45.712Z,17.54
2022-09-18T05:34:49.340Z,17.41
2022-09-18T05:35:54.764Z,17.42
2022-09-18T05:36:56.467Z,17.28
2022-09-18T05:37:58.702Z,17.15
2022-09-18T05:39:00.723Z,17.06
2022-09-18T05:40:02.664Z,17.02
2022-09-18T05:41:04.811Z,16.94
2022-09-18T05:42:06.707Z,17.00
2022-09-18T05:43:09.001Z,16.94
2022-09-18T05:44:10.842Z,16.91
2022-09-18T05:45:13.543Z,16.91
2022-09-18T05:46:15.502Z,16.84
2022-09-18T05:47:17.366Z,16.86
2022-09-18T05:48:19.170Z,16.83
2022-09-18T05:49:25.139Z,16.89
2022-09-18T05:50:28.767Z,16.88
2022-09-18T05:51:35.445Z,16.90
2022-09-18T05:52:37.139Z,16.88
2022-09-18T05:53:38.810Z,16.90
2022-09-18T05:54:40.462Z,16.89
2022-09-18T05:55:43.060Z,16.93
2022-09-18T05:56:44.977Z,16.97
2022-09-18T05:57:46.675Z,17.00
2022-09-18T05:58:48.337Z,17.05
2022-09-18T05:59:49.982Z,17.07
2022-09-18T06:00:52.570Z,17.15
2022-09-18T06:01:54.724Z,17.26
2022-09-18T06:02:57.978Z,17.33
2022-09-18T06:03:59.855Z,17.43
2022-09-18T06:05:01.548Z,17.63
2022-09-18T06:06:03.373Z,17.81
2022-09-18T06:07:05.523Z,17.89
2022-09-18T06:08:10.455Z,18.08
2022-09-18T06:09:12.255Z,18.23
2022-09-18T06:10:14.224Z,18.16
2022-09-18T06:11:15.928Z,18.03
2022-09-18T06:12:17.638Z,18.07
2022-09-18T06:13:19.429Z,18.11
2022-09-18T06:14:21.105Z,18.19
2022-09-18T06:15:22.774Z,18.30
2022-09-18T06:16:24.517Z,18.34
2022-09-18T06:17:26.267Z,18.35
2022-09-18T06:18:28.136Z,18.14
2022-09-18T06:19:30.137Z,18.17
2022-09-18T06:20:31.803Z,18.11
2022-09-18T06:21:33.513Z,18.03
2022-09-18T06:22:36.558Z,18.08
2022-09-18T06:23:38.298Z,18.06
2022-09-18T06:24:39.950Z,18.13
2022-09-18T06:25:41.602Z,18.07
2022-09-18T06:26:43.312Z,18.10
2022-09-18T06:27:45.286Z,18.16
2022-09-18T06:28:47.166Z,18.39
2022-09-18T06:29:48.852Z,18.54
2022-09-18T06:30:50.497Z,18.67
2022-09-18T06:31:52.485Z,18.81
2022-09-18T06:32:54.892Z,18.73
2022-09-18T06:33:56.889Z,18.72
2022-09-18T06:34:58.962Z,18.73
2022-09-18T06:36:01.543Z,18.72
2022-09-18T06:37:03.906Z,18.67
2022-09-18T06:38:07.111Z,18.80
2022-09-18T06:39:08.771Z,18.94
2022-09-18T06:40:10.696Z,18.82
2022-09-18T06:41:12.409Z,18.86
2022-09-18T06:42:14.116Z,18.84
2022-09-18T06:43:16.012Z,18.87
2022-09-18T06:44:17.691Z,18.90
2022-09-18T06:45:19.663Z,18.90
2022-09-18T06:46:21.597Z,18.89
2022-09-18T06:47:23.383Z,18.95
2022-09-18T06:48:25.873Z,19.01
2022-09-18T06:49:27.597Z,19.08
2022-09-18T06:50:29.979Z,19.28
2022-09-18T06:51:31.661Z,19.37
2022-09-18T06:52:33.403Z,19.31
2022-09-18T06:53:35.202Z,19.39
2022-09-18T06:54:36.878Z,19.59
2022-09-18T06:55:38.920Z,19.68
2022-09-18T06:56:41.485Z,19.72
2022-09-18T06:57:43.261Z,19.78
2022-09-18T06:58:45.376Z,19.77
2022-09-18T06:59:47.089Z,19.77
2022-09-18T07:00:48.850Z,19.79
2022-09-18T07:01:50.753Z,19.81
2022-09-18T07:02:56.356Z,19.81
2022-09-18T07:03:58.200Z,19.90
2022-09-18T07:05:00.914Z,20.12
2022-09-18T07:06:02.650Z,20.24
2022-09-18T07:07:04.431Z,20.30
2022-09-18T07:08:06.124Z,20.45
2022-09-18T07:09:07.784Z,20.68
2022-09-18T07:10:10.135Z,20.89
2022-09-18T07:11:11.853Z,20.94
2022-09-18T07:12:13.535Z,20.78
2022-09-18T07:13:15.430Z,20.95
2022-09-18T07:14:17.089Z,20.88
2022-09-18T07:15:20.012Z,20.82
2022-09-18T07:16:21.787Z,20.91
2022-09-18T07:17:26.395Z,21.02
2022-09-18T07:18:28.377Z,21.17
2022-09-18T07:19:30.163Z,21.22
2022-09-18T07:20:32.161Z,21.39
2022-09-18T07:21:34.088Z,21.47
2022-09-18T07:22:35.776Z,21.14
2022-09-18T07:23:37.494Z,21.21
2022-09-18T07:24:39.190Z,21.19
2022-09-18T07:25:40.872Z,21.13
2022-09-18T07:26:42.623Z,20.99
2022-09-18T07:27:44.651Z,20.68
2022-09-18T07:28:46.497Z,20.32
2022-09-18T07:29:48.343Z,20.22
2022-09-18T07:30:49.991Z,19.90
2022-09-18T07:31:51.663Z,19.74
2022-09-18T07:32:53.330Z,19.52
2022-09-18T07:33:55.451Z,19.46
2022-09-18T07:34:57.118Z,19.34
2022-09-18T07:36:02.705Z,18.92
2022-09-18T07:37:04.411Z,18.88
2022-09-18T07:38:07.653Z,18.93
2022-09-18T07:39:09.321Z,19.12
2022-09-18T07:40:12.878Z,19.35
2022-09-18T07:41:14.629Z,19.43
2022-09-18T07:42:16.292Z,19.28
2022-09-18T07:43:18.096Z,19.18
2022-09-18T07:44:19.784Z,19.12
2022-09-18T07:45:21.445Z,19.04
2022-09-18T07:46:23.255Z,18.95
2022-09-18T07:47:25.488Z,18.88
2022-09-18T07:48:27.893Z,18.87
2022-09-18T07:49:29.826Z,18.84
2022-09-18T07:50:32.150Z,18.89
2022-09-18T07:51:33.901Z,18.91
2022-09-18T07:52:35.557Z,18.82
2022-09-18T07:53:37.769Z,18.88
2022-09-18T07:54:39.432Z,19.16
2022-09-18T07:55:45.417Z,19.24
2022-09-18T07:56:47.291Z,19.19
2022-09-18T07:58:00.697Z,19.41
2022-09-18T07:59:02.423Z,19.64
2022-09-18T08:00:04.502Z,20.02
2022-09-18T08:01:07.084Z,20.21
2022-09-18T08:02:08.927Z,20.37
2022-09-18T08:03:14.435Z,20.22
2022-09-18T08:04:16.330Z,20.02
2022-09-18T08:05:18.062Z,19.85
2022-09-18T08:06:20.457Z,19.63
2022-09-18T08:07:24.659Z,19.52
2022-09-18T08:08:26.551Z,19.39
2022-09-18T08:09:28.280Z,19.42
2022-09-18T08:10:30.325Z,19.37
2022-09-18T08:11:32.095Z,19.45
2022-09-18T08:12:34.107Z,19.37
2022-09-18T08:13:35.833Z,19.30
2022-09-18T08:14:37.482Z,19.22
2022-09-18T08:15:41.592Z,19.10
2022-09-18T08:16:43.436Z,18.89
2022-09-18T08:17:46.747Z,18.80
2022-09-18T08:18:49.238Z,18.73
2022-09-18T08:19:51.431Z,18.60
2022-09-18T08:20:56.526Z,18.36
2022-09-18T08:21:58.405Z,18.39
2022-09-18T08:23:02.152Z,18.25
2022-09-18T08:24:04.195Z,18.31
2022-09-18T08:25:06.597Z,18.08
2022-09-18T08:26:08.733Z,18.13
2022-09-18T08:27:10.385Z,18.12
2022-09-18T08:28:12.047Z,17.89
2022-09-18T08:29:19.260Z,17.98
2022-09-18T08:30:21.137Z,17.99
2022-09-18T08:31:22.885Z,17.78
2022-09-18T08:32:24.621Z,17.72
2022-09-18T08:33:26.553Z,17.68
2022-09-18T08:34:28.661Z,17.64
2022-09-18T08:35:32.144Z,17.59
2022-09-18T08:36:34.325Z,17.60
2022-09-18T08:37:36.620Z,17.58
2022-09-18T08:38:38.391Z,17.58
2022-09-18T08:39:40.095Z,17.54
2022-09-18T08:40:50.805Z,17.47
2022-09-18T08:42:14.153Z,17.37
2022-09-18T08:43:21.848Z,17.32
2022-09-18T08:44:45.264Z,17.36
2022-09-18T08:46:02.826Z,17.38
2022-09-18T08:47:15.513Z,17.38
2022-09-18T08:48:24.016Z,17.32
2022-09-18T08:49:33.085Z,17.29
2022-09-18T08:50:39.337Z,17.29
2022-09-18T08:51:58.991Z,17.30
2022-09-18T08:53:10.887Z,17.19
2022-09-18T08:54:23.318Z,17.37
2022-09-18T08:55:30.153Z,17.23
2022-09-18T08:56:34.032Z,17.22
2022-09-18T08:57:49.773Z,17.28
2022-09-18T08:59:00.327Z,17.30
2022-09-18T09:00:12.957Z,17.26
2022-09-18T09:01:19.630Z,17.24
2022-09-18T09:02:30.672Z,17.34
2022-09-18T09:03:44.350Z,17.37
2022-09-18T09:04:46.237Z,17.43
2022-09-18T09:06:32.706Z,17.44
2022-09-18T09:08:11.683Z,17.48
2022-09-18T09:10:03.751Z,17.50
2022-09-18T09:11:31.421Z,17.49
2022-09-18T09:12:33.057Z,17.50
2022-09-18T09:13:57.314Z,17.46
2022-09-18T09:15:01.719Z,17.42
2022-09-18T09:16:34.208Z,17.44
2022-09-18T09:18:08.037Z,17.52
2022-09-18T09:19:41.769Z,17.59
2022-09-18T09:20:52.622Z,17.63
2022-09-18T09:22:07.971Z,17.57
2022-09-18T09:23:54.557Z,17.58
2022-09-18T09:25:25.598Z,17.64
2022-09-18T09:26:28.071Z,17.63
2022-09-18T09:27:37.377Z,17.71
2022-09-18T09:29:00.663Z,17.71
2022-09-18T09:30:07.364Z,17.73
2022-09-18T09:31:11.010Z,17.72
2022-09-18T09:32:36.091Z,17.76
2022-09-18T09:33:50.000Z,17.72
2022-09-18T09:35:01.150Z,17.74
2022-09-18T09:36:13.817Z,17.76
2022-09-18T09:37:22.330Z,17.81
2022-09-18T09:38:53.029Z,17.83
2022-09-18T09:40:00.323Z,17.86
2022-09-18T09:41:27.500Z,17.95
2022-09-18T09:42:39.949Z,18.05
2022-09-18T09:43:55.108Z,18.20
2022-09-18T09:44:59.915Z,18.29
2022-09-18T09:46:11.776Z,18.31
2022-09-18T09:47:20.070Z,18.29
2022-09-18T09:48:35.086Z,18.16
2022-09-18T09:49:50.925Z,18.11
2022-09-18T09:50:55.605Z,18.14
2022-09-18T09:52:06.946Z,18.12
2022-09-18T09:53:12.855Z,18.14
2022-09-18T09:54:14.628Z,18.02
2022-09-18T09:55:29.981Z,18.12
2022-09-18T09:56:49.736Z,18.17
2022-09-18T09:57:54.204Z,18.20
2022-09-18T09:59:08.781Z,18.30
2022-09-18T10:00:18.015Z,18.40
2022-09-18T10:01:28.545Z,18.49
2022-09-18T10:03:00.342Z,18.61
2022-09-18T10:04:23.642Z,18.66
2022-09-18T10:05:50.335Z,18.67
2022-09-18T10:07:16.808Z,18.76
2022-09-18T10:08:31.132Z,19.17
2022-09-18T10:10:02.880Z,19.58
2022-09-18T10:11:11.426Z,19.86
2022-09-18T10:12:32.025Z,20.27
2022-09-18T10:13:40.759Z,20.62
2022-09-18T10:14:46.555Z,20.87
2022-09-18T10:15:51.844Z,21.09
2022-09-18T10:16:56.729Z,21.28
2022-09-18T10:18:02.009Z,21.58
2022-09-18T10:19:04.671Z,21.79
2022-09-18T10:20:07.353Z,21.91
2022-09-18T10:21:21.272Z,21.92
2022-09-18T10:22:23.766Z,22.21
2022-09-18T10:23:33.981Z,22.19
2022-09-18T10:25:01.624Z,22.32
2022-09-18T10:26:03.315Z,22.47
2022-09-18T10:27:13.961Z,22.56
2022-09-18T10:28:16.132Z,22.49
2022-09-18T10:29:18.649Z,22.74
2022-09-18T10:30:20.428Z,22.84
2022-09-18T10:31:22.177Z,22.95
2022-09-18T10:32:38.103Z,23.04
2022-09-18T10:33:45.263Z,23.30
2022-09-18T10:34:49.875Z,23.39
2022-09-18T10:35:54.179Z,23.48
2022-09-18T10:36:55.955Z,23.27
2022-09-18T10:37:59.361Z,23.25
2022-09-18T10:39:01.301Z,23.15
2022-09-18T10:40:04.564Z,23.20
2022-09-18T10:41:11.333Z,23.02
2022-09-18T10:42:18.349Z,23.05
2022-09-18T10:43:20.964Z,23.05
2022-09-18T10:44:31.451Z,22.90
2022-09-18T10:45:41.931Z,22.88
2022-09-18T10:46:57.194Z,22.80
2022-09-18T10:48:13.873Z,22.74
2022-09-18T10:49:23.030Z,22.87
2022-09-18T10:50:24.695Z,22.81
2022-09-18T10:51:28.893Z,22.86
2022-09-18T10:52:40.278Z,22.88
2022-09-18T10:53:42.728Z,22.85
2022-09-18T10:56:15.161Z,22.96
2022-09-18T10:57:48.954Z,23.03
2022-09-18T10:58:50.645Z,23.12
2022-09-18T10:59:52.301Z,23.08
2022-09-18T11:00:58.777Z,23.20
2022-09-18T11:02:04.159Z,23.26
2022-09-18T11:03:23.587Z,23.18
2022-09-18T11:04:27.599Z,23.06
2022-09-18T11:05:30.850Z,22.79
2022-09-18T11:06:35.872Z,22.88
2022-09-18T11:08:46.750Z,23.01
2022-09-18T11:09:49.110Z,23.01
2022-09-18T11:10:55.551Z,22.92
2022-09-18T11:11:57.358Z,22.93
2022-09-18T11:13:02.475Z,23.00
2022-09-18T11:14:06.637Z,22.95
2022-09-18T11:15:17.330Z,22.82
2022-09-18T11:16:28.124Z,22.65
2022-09-18T11:17:33.663Z,22.64
2022-09-18T11:18:35.403Z,22.60
2022-09-18T11:19:39.256Z,22.34
2022-09-18T11:20:43.924Z,22.34
2022-09-18T11:21:47.096Z,22.40
2022-09-18T11:22:49.062Z,22.23
2022-09-18T11:24:02.543Z,22.05
2022-09-18T11:25:15.302Z,22.08
2022-09-18T11:26:28.476Z,21.94
2022-09-18T11:27:44.760Z,21.91
2022-09-18T11:29:20.556Z,21.83
2022-09-18T11:30:31.069Z,21.64
2022-09-18T11:31:43.415Z,21.62
2022-09-18T11:32:46.911Z,21.60
2022-09-18T11:33:55.786Z,21.57
2022-09-18T11:35:02.075Z,21.47
2022-09-18T11:36:08.020Z,21.61
2022-09-18T11:37:14.213Z,21.62
2022-09-18T11:38:20.256Z,21.61
2022-09-18T11:39:27.519Z,21.64
2022-09-18T11:40:33.888Z,21.54
2022-09-18T11:41:39.254Z,21.57
2022-09-18T11:42:46.104Z,21.62
2022-09-18T11:44:00.615Z,21.61
2022-09-18T11:45:38.683Z,21.57
2022-09-18T11:46:40.315Z,21.59
2022-09-18T11:47:47.670Z,21.56
2022-09-18T11:49:03.782Z,21.41
2022-09-18T11:50:18.029Z,21.33
2022-09-18T11:51:31.249Z,21.42
2022-09-18T11:52:38.665Z,21.38
2022-09-18T11:53:44.555Z,21.44
2022-09-18T11:54:52.841Z,21.30
2022-09-18T11:56:03.797Z,21.20
2022-09-18T11:57:16.797Z,21.22
2022-09-18T11:58:26.329Z,21.07
2022-09-18T11:59:49.643Z,20.99
2022-09-18T12:01:05.267Z,20.97
2022-09-18T12:02:22.997Z,20.87
2022-09-18T12:03:30.484Z,20.92
2022-09-18T12:04:53.169Z,20.98
2022-09-18T12:06:04.026Z,20.83
2022-09-18T12:07:38.720Z,20.85
2022-09-18T12:08:43.238Z,20.87
2022-09-18T12:09:56.945Z,20.87
2022-09-18T12:11:10.941Z,20.84
2022-09-18T12:12:29.706Z,20.75
2022-09-18T12:13:45.435Z,20.79
2022-09-18T12:15:03.470Z,20.77
2022-09-18T12:16:14.231Z,20.74
2022-09-18T12:17:23.887Z,20.60
2022-09-18T12:18:31.332Z,20.57
2022-09-18T12:19:38.836Z,20.62
2022-09-18T12:20:45.598Z,20.59
2022-09-18T12:22:01.383Z,20.65
2022-09-18T12:23:03.494Z,20.66
2022-09-18T12:24:11.790Z,20.66
2022-09-18T12:25:15.831Z,20.66
2022-09-18T12:26:30.379Z,20.66
2022-09-18T12:27:43.618Z,20.68
2022-09-18T12:28:57.322Z,20.64
2022-09-18T12:30:17.640Z,20.59
2022-09-18T12:31:40.285Z,20.52
2022-09-18T12:32:47.752Z,20.37
2022-09-18T12:34:01.604Z,20.35
2022-09-18T12:35:15.424Z,20.38
2022-09-18T12:36:41.493Z,20.41
2022-09-18T12:37:58.226Z,20.32
2022-09-18T12:39:19.810Z,20.39
2022-09-18T12:40:27.536Z,20.37
2022-09-18T12:41:56.870Z,20.25
2022-09-18T12:43:10.842Z,20.10
2022-09-18T12:44:12.456Z,20.05
2022-09-18T12:45:32.714Z,20.02
2022-09-18T12:46:37.067Z,19.89
2022-09-18T12:47:41.654Z,19.87
2022-09-18T12:49:01.675Z,19.95
2022-09-18T12:50:12.261Z,19.91
2022-09-18T12:51:26.351Z,19.96
2022-09-18T12:53:08.716Z,20.02
2022-09-18T12:54:11.342Z,20.06
2022-09-18T12:55:47.527Z,19.96
2022-09-18T12:57:21.793Z,20.09
2022-09-18T12:58:29.247Z,20.09
2022-09-18T12:59:54.238Z,20.12
2022-09-18T13:01:02.146Z,20.15
2022-09-18T13:02:20.953Z,20.21
2022-09-18T13:03:33.569Z,20.24
2022-09-18T13:04:46.831Z,20.20
2022-09-18T13:06:13.670Z,20.24
2022-09-18T13:07:25.264Z,20.29
2022-09-18T13:08:32.671Z,20.35
2022-09-18T13:09:50.619Z,20.18
2022-09-18T13:11:09.792Z,20.20
2022-09-18T13:12:28.690Z,20.15
2022-09-18T13:13:57.328Z,20.20
2022-09-18T13:15:25.838Z,20.16
2022-09-18T13:16:50.794Z,20.18
2022-09-18T13:18:04.036Z,20.14
2022-09-18T13:19:30.990Z,20.34
2022-09-18T13:20:42.995Z,20.41
2022-09-18T13:21:46.277Z,20.43
2022-09-18T13:22:53.411Z,20.48
2022-09-18T13:23:57.667Z,20.46
2022-09-18T13:25:00.282Z,20.55
2022-09-18T13:26:04.868Z,20.61
2022-09-18T13:27:18.288Z,20.60
2022-09-18T13:28:22.885Z,20.58
2022-09-18T13:29:52.325Z,20.52
2022-09-18T13:31:14.843Z,20.52
2022-09-18T13:32:37.252Z,20.56
2022-09-18T13:33:39.746Z,20.62
2022-09-18T13:34:50.398Z,20.60
2022-09-18T13:35:56.535Z,20.75
2022-09-18T13:37:06.663Z,20.71
2022-09-18T13:38:20.643Z,20.67
2022-09-18T13:39:37.632Z,20.66
2022-09-18T13:40:57.233Z,20.67
2022-09-18T13:41:59.603Z,20.61
2022-09-18T13:43:33.536Z,20.63
2022-09-18T13:44:36.364Z,20.62
2022-09-18T13:45:38.896Z,20.58
2022-09-18T13:46:42.097Z,20.54
2022-09-18T13:48:06.800Z,20.54
2022-09-18T13:49:29.882Z,20.60
2022-09-18T13:50:34.481Z,20.56
2022-09-18T13:51:37.418Z,20.50
2022-09-18T13:52:43.546Z,20.49
2022-09-18T13:53:45.331Z,20.48
2022-09-18T13:55:15.184Z,20.48
2022-09-18T13:56:17.586Z,20.41
2022-09-18T13:57:20.371Z,20.42
2022-09-18T13:58:38.312Z,20.41
2022-09-18T13:59:54.425Z,20.31
2022-09-18T14:00:58.148Z,20.43
2022-09-18T14:02:02.600Z,20.45
2022-09-18T14:03:07.368Z,20.41
2022-09-18T14:04:40.148Z,20.31
2022-09-18T14:05:42.924Z,20.23
2022-09-18T14:06:45.544Z,20.21
2022-09-18T14:07:57.106Z,20.18
2022-09-18T14:08:58.825Z,20.15
2022-09-18T14:10:06.683Z,20.13
2022-09-18T14:11:15.343Z,20.17
2022-09-18T14:12:18.667Z,20.16
2022-09-18T14:13:23.477Z,20.15
2022-09-18T14:14:26.281Z,20.14
2022-09-18T14:15:28.042Z,20.15
2022-09-18T14:16:40.962Z,20.06
2022-09-18T14:18:03.065Z,20.17
2022-09-18T14:19:20.605Z,20.12
2022-09-18T14:20:22.562Z,20.09
2022-09-18T14:21:29.308Z,20.03
2022-09-18T14:22:34.560Z,20.02
2022-09-18T14:23:36.301Z,20.04
2022-09-18T14:24:37.954Z,20.01
2022-09-18T14:25:47.102Z,20.00
2022-09-18T14:26:58.038Z,19.99
2022-09-18T14:28:05.409Z,20.03
2022-09-18T14:29:16.644Z,20.06
2022-09-18T14:30:27.773Z,20.00
2022-09-18T14:31:30.785Z,19.82
2022-09-18T14:32:33.340Z,19.67